Tamdy, Uzbekistan
Current Conditions -  °F | °C
As of 9:00 AM on Thursday 27 Nov 2014 (Local Time) from UTSA Reporting Station
Moderate Snow Moderate Snow  
Wind Chill: 28°   Ceiling: 600
Heat Index: 28°   Visibility: 1.9mi
Dew Point: 27°   Wind: 3mph
Humidity: 93%   Direction: 190°S
Pressure: 30.24"   Gusts: NA
Location:  41.73°N, 64.62°E
Report Text: UTSA 270400Z 19003KT 3100 SN BR OVC006 M02/M03 Q1024 R25/2///60RMK BASE660 NOSIG
Loading
Personal Weather Stations






























Interactive Weather Map New forecast layout! Learn more

10-Day Weather Forecast

Advertisements
Track Severe Weather on mobile